Time;durP1;ratioP1;P1;durP2;ratioP2;P2;SDS_P1;SDS_P2;PMS_P1;PMS_P2;Temp;Humidity;BMP_temperature;BMP_pressure;BME280_temperature;BME280_humidity;BME280_pressure;Samples;Min_cycle;Max_cycle;Signal;HPM_P1;HPM_P2
2023/10/17 00:01:13;;;;;;;;;;;3.90;99.90;;;;;;5084450;28;20152;-71
2023/10/17 00:03:39;;;;;;;;;;;3.80;99.90;;;;;;5083823;28;19925;-71
2023/10/17 00:06:07;;;;;;;;;;;3.80;99.90;;;;;;5083378;28;20173;-71
2023/10/17 00:08:35;;;;;;;;;;;3.60;99.90;;;;;;5082086;28;19920;-71
2023/10/17 00:11:06;;;;;;;;;;;3.60;99.90;;;;;;5085748;28;19991;-71
2023/10/17 00:13:38;;;;;;;;;;;3.60;99.90;;;;;;5084047;28;19926;-70
2023/10/17 00:16:11;;;;;;;;;;;3.50;99.90;;;;;;5080297;28;20328;-71
2023/10/17 00:18:38;;;;;;;;;;;3.50;99.90;;;;;;5083652;28;19943;-71
2023/10/17 00:21:11;;;;;;;;;;;3.40;99.90;;;;;;5081919;28;19952;-70
2023/10/17 00:23:40;;;;;;;;;;;3.40;99.90;;;;;;5083770;28;20118;-69
2023/10/17 00:26:08;;;;;;;;;;;3.40;99.90;;;;;;5082869;28;20018;-71
2023/10/17 00:28:36;;;;;;;;;;;3.40;99.90;;;;;;5083890;28;19920;-71
2023/10/17 00:31:04;;;;;;;;;;;3.40;99.90;;;;;;5083215;28;20117;-70
2023/10/17 00:33:32;;;;;;;;;;;3.40;99.90;;;;;;5083240;28;19921;-71
2023/10/17 00:36:03;;;;;;;;;;;3.30;99.90;;;;;;5082895;28;19920;-71
2023/10/17 00:38:35;;;;;;;;;;;3.30;99.90;;;;;;5083295;28;20209;-71
2023/10/17 00:41:04;;;;;;;;;;;3.30;99.90;;;;;;5079863;28;19988;-70
2023/10/17 00:43:31;;;;;;;;;;;3.20;99.90;;;;;;5083269;28;19920;-71
2023/10/17 00:45:58;;;;;;;;;;;3.20;99.90;;;;;;5082779;28;19924;-71
2023/10/17 00:48:26;;;;;;;;;;;3.10;99.90;;;;;;5077961;28;20280;-71
2023/10/17 00:50:57;;;;;;;;;;;3.10;99.90;;;;;;5082974;28;19920;-71
2023/10/17 00:53:26;;;;;;;;;;;3.10;99.90;;;;;;5083486;28;19958;-71
2023/10/17 00:55:55;;;;;;;;;;;3.10;99.90;;;;;;5082610;28;20091;-71
2023/10/17 00:58:24;;;;;;;;;;;3.10;99.90;;;;;;5081157;28;19921;-71
2023/10/17 01:00:58;;;;;;;;;;;3.10;99.90;;;;;;5083482;28;19921;-70
2023/10/17 01:03:25;;;;;;;;;;;3.10;99.90;;;;;;5082993;28;19988;-70
2023/10/17 01:06:10;;;;;;;;;;;3.00;99.90;;;;;;5082012;28;19928;-69
2023/10/17 01:08:39;;;;;;;;;;;3.00;99.90;;;;;;5079374;28;20214;-70
2023/10/17 01:11:09;;;;;;;;;;;3.00;99.90;;;;;;5082692;28;20210;-71
2023/10/17 01:13:38;;;;;;;;;;;2.90;99.90;;;;;;5082821;28;19920;-71
2023/10/17 01:16:10;;;;;;;;;;;2.90;99.90;;;;;;5081877;28;20256;-72
2023/10/17 01:18:36;;;;;;;;;;;2.90;99.90;;;;;;5082973;28;19944;-71
2023/10/17 01:21:04;;;;;;;;;;;2.90;99.90;;;;;;5078737;28;20188;-71
2023/10/17 01:23:32;;;;;;;;;;;2.80;99.90;;;;;;5083311;28;20120;-71
2023/10/17 01:26:05;;;;;;;;;;;2.80;99.90;;;;;;5085205;28;19928;-70
2023/10/17 01:28:31;;;;;;;;;;;2.80;99.90;;;;;;5078996;28;19926;-71
2023/10/17 01:31:01;;;;;;;;;;;2.80;99.90;;;;;;5083080;28;19952;-71
2023/10/17 01:33:29;;;;;;;;;;;2.80;99.90;;;;;;5078479;28;19921;-71
2023/10/17 01:35:57;;;;;;;;;;;2.80;99.90;;;;;;5082123;28;19920;-71
2023/10/17 01:38:26;;;;;;;;;;;2.80;99.90;;;;;;5082668;28;20260;-71
2023/10/17 01:40:53;;;;;;;;;;;2.70;99.90;;;;;;5082787;28;20343;-71
2023/10/17 01:43:21;;;;;;;;;;;2.70;99.90;;;;;;5082319;28;19928;-71
2023/10/17 01:45:48;;;;;;;;;;;2.70;99.90;;;;;;5082224;28;19955;-71
2023/10/17 01:48:15;;;;;;;;;;;2.70;99.90;;;;;;5082709;28;19925;-71
2023/10/17 01:50:44;;;;;;;;;;;2.60;99.90;;;;;;5082331;28;19921;-71
2023/10/17 01:53:12;;;;;;;;;;;2.60;99.90;;;;;;5082233;28;19920;-71
2023/10/17 01:55:39;;;;;;;;;;;2.60;99.90;;;;;;5081984;28;19924;-71
2023/10/17 01:58:07;;;;;;;;;;;2.60;99.90;;;;;;5082358;28;19928;-71
2023/10/17 02:00:38;;;;;;;;;;;2.60;99.90;;;;;;5082677;28;19921;-71
2023/10/17 02:03:06;;;;;;;;;;;2.60;99.90;;;;;;5079635;28;19927;-71
2023/10/17 02:05:34;;;;;;;;;;;2.60;99.90;;;;;;5081752;28;19935;-71
2023/10/17 02:08:01;;;;;;;;;;;2.50;99.90;;;;;;5081463;28;19931;-71
2023/10/17 02:10:29;;;;;;;;;;;2.50;99.90;;;;;;5077578;28;20213;-71
2023/10/17 02:12:56;;;;;;;;;;;2.50;99.90;;;;;;5082014;28;19921;-70
2023/10/17 02:15:24;;;;;;;;;;;2.40;99.90;;;;;;5082239;28;19979;-71
2023/10/17 02:17:52;;;;;;;;;;;2.40;99.90;;;;;;5082862;28;19936;-71
2023/10/17 02:20:29;;;;;;;;;;;2.40;99.90;;;;;;5086083;28;19927;-71
2023/10/17 02:22:57;;;;;;;;;;;2.30;99.90;;;;;;5081473;28;19921;-71
2023/10/17 02:25:31;;;;;;;;;;;2.30;99.90;;;;;;5081992;28;19975;-70
2023/10/17 02:27:58;;;;;;;;;;;2.20;99.90;;;;;;5082424;28;19928;-70
2023/10/17 02:30:25;;;;;;;;;;;2.20;99.90;;;;;;5082278;28;19960;-71
2023/10/17 02:32:53;;;;;;;;;;;2.10;99.90;;;;;;5085130;28;19920;-72
2023/10/17 02:35:22;;;;;;;;;;;2.10;99.90;;;;;;5084929;28;19928;-71
2023/10/17 02:37:49;;;;;;;;;;;2.10;99.90;;;;;;5085478;28;19983;-71
2023/10/17 02:40:20;;;;;;;;;;;2.10;99.90;;;;;;5085738;28;19984;-71
2023/10/17 02:42:47;;;;;;;;;;;2.10;99.90;;;;;;5085701;28;19920;-71
2023/10/17 02:45:24;;;;;;;;;;;2.10;99.90;;;;;;5085154;28;19920;-71
2023/10/17 02:47:53;;;;;;;;;;;2.10;99.90;;;;;;5085702;28;19920;-71
2023/10/17 02:50:26;;;;;;;;;;;2.00;99.90;;;;;;5085398;28;19984;-71
2023/10/17 02:52:53;;;;;;;;;;;2.00;99.90;;;;;;5085785;28;19928;-71
2023/10/17 02:55:23;;;;;;;;;;;2.00;99.90;;;;;;5084885;28;19920;-72
2023/10/17 02:57:51;;;;;;;;;;;2.00;99.90;;;;;;5085319;28;19927;-71
2023/10/17 03:00:21;;;;;;;;;;;2.00;99.90;;;;;;5085627;28;19925;-71
2023/10/17 03:02:49;;;;;;;;;;;1.90;99.90;;;;;;5085623;28;19924;-71
2023/10/17 03:05:18;;;;;;;;;;;1.90;99.90;;;;;;5077834;28;20125;-71
2023/10/17 03:07:49;;;;;;;;;;;1.90;99.90;;;;;;5083638;28;20221;-71
2023/10/17 03:10:23;;;;;;;;;;;1.90;99.90;;;;;;5068414;28;19920;-71
2023/10/17 03:12:55;;;;;;;;;;;1.80;99.90;;;;;;5077253;28;19928;-70
2023/10/17 03:15:23;;;;;;;;;;;1.80;99.90;;;;;;5074460;28;20226;-70
2023/10/17 03:17:53;;;;;;;;;;;1.80;99.90;;;;;;5074803;28;19920;-71
2023/10/17 03:20:36;;;;;;;;;;;1.80;99.90;;;;;;5083797;28;19916;-71
2023/10/17 03:23:03;;;;;;;;;;;1.70;99.90;;;;;;5081747;28;19920;-71
2023/10/17 03:25:36;;;;;;;;;;;1.70;99.90;;;;;;5084833;28;20143;-71
2023/10/17 03:28:04;;;;;;;;;;;1.60;99.90;;;;;;5077156;28;19921;-70
2023/10/17 03:30:31;;;;;;;;;;;1.60;99.90;;;;;;5081841;28;19943;-70
2023/10/17 03:33:08;;;;;;;;;;;1.60;99.90;;;;;;5084628;28;19956;-70
2023/10/17 03:35:36;;;;;;;;;;;1.60;99.90;;;;;;5084317;28;20140;-71
2023/10/17 03:38:02;;;;;;;;;;;1.60;99.90;;;;;;5084553;28;19991;-71
2023/10/17 03:40:30;;;;;;;;;;;1.60;99.90;;;;;;5083609;28;19963;-71
2023/10/17 03:43:00;;;;;;;;;;;1.60;99.90;;;;;;5083867;28;19936;-70
2023/10/17 03:45:35;;;;;;;;;;;1.60;99.90;;;;;;5080780;28;19924;-71
2023/10/17 03:48:04;;;;;;;;;;;1.60;99.90;;;;;;5085119;28;19966;-70
2023/10/17 03:50:41;;;;;;;;;;;1.60;99.90;;;;;;5089529;28;19991;-70
2023/10/17 03:53:14;;;;;;;;;;;1.70;99.90;;;;;;5084045;28;19966;-71
2023/10/17 03:55:43;;;;;;;;;;;1.60;99.90;;;;;;5083984;28;19921;-71
2023/10/17 03:58:24;;;;;;;;;;;1.70;99.90;;;;;;5086316;28;19920;-71
2023/10/17 04:00:51;;;;;;;;;;;1.70;99.90;;;;;;5084169;28;20236;-70
2023/10/17 04:03:21;;;;;;;;;;;1.70;99.90;;;;;;5084201;28;19971;-71
2023/10/17 04:05:50;;;;;;;;;;;1.70;99.90;;;;;;5084192;28;19983;-71
2023/10/17 04:08:25;;;;;;;;;;;1.60;99.90;;;;;;5087209;28;19962;-71
2023/10/17 04:11:08;;;;;;;;;;;1.60;99.90;;;;;;5082730;28;19924;-70
2023/10/17 04:13:35;;;;;;;;;;;1.60;99.90;;;;;;5091358;28;19921;-71
2023/10/17 04:16:08;;;;;;;;;;;1.60;99.90;;;;;;5085410;28;20412;-70
2023/10/17 04:18:37;;;;;;;;;;;1.50;99.90;;;;;;5083905;28;19960;-71
2023/10/17 04:21:16;;;;;;;;;;;1.60;99.90;;;;;;5082986;28;19940;-70
2023/10/17 04:23:44;;;;;;;;;;;1.50;99.90;;;;;;5083540;28;20126;-70
2023/10/17 04:26:17;;;;;;;;;;;1.50;99.90;;;;;;5083182;28;20118;-70
2023/10/17 04:28:49;;;;;;;;;;;1.50;99.90;;;;;;5083822;28;19920;-71
2023/10/17 04:31:21;;;;;;;;;;;1.50;99.90;;;;;;5091391;28;19920;-71
2023/10/17 04:33:49;;;;;;;;;;;1.50;99.90;;;;;;5083587;28;20174;-72
2023/10/17 04:36:17;;;;;;;;;;;1.50;99.90;;;;;;5082977;28;19921;-71
2023/10/17 04:38:55;;;;;;;;;;;1.50;99.90;;;;;;5085734;28;19959;-71
2023/10/17 04:41:40;;;;;;;;;;;1.50;99.90;;;;;;5084429;28;19928;-70
2023/10/17 04:44:15;;;;;;;;;;;1.40;99.90;;;;;;5080876;28;19991;-70
2023/10/17 04:46:50;;;;;;;;;;;1.40;99.90;;;;;;5083219;28;20170;-70
2023/10/17 04:49:18;;;;;;;;;;;1.40;99.90;;;;;;5083485;28;20206;-70
2023/10/17 04:51:45;;;;;;;;;;;1.40;99.90;;;;;;5083664;28;19920;-70
2023/10/17 04:54:22;;;;;;;;;;;1.50;99.90;;;;;;5083615;28;19924;-70
2023/10/17 04:56:59;;;;;;;;;;;1.40;99.90;;;;;;5081559;28;19921;-72
2023/10/17 04:59:41;;;;;;;;;;;1.40;99.90;;;;;;5083641;28;19920;-70
2023/10/17 05:02:35;;;;;;;;;;;1.40;99.90;;;;;;5081056;28;19916;-70
2023/10/17 06:19:15;;;;;;;;;;;1.70;99.90;;;;;;5076998;28;19944;-70
2023/10/17 06:22:35;;;;;;;;;;;1.80;99.90;;;;;;5077652;28;19927;-70
2023/10/17 06:25:28;;;;;;;;;;;1.80;99.90;;;;;;5073834;28;19933;-70
2023/10/17 06:30:45;;;;;;;;;;;1.80;99.90;;;;;;5082369;28;19917;-70
2023/10/17 06:33:19;;;;;;;;;;;1.80;99.90;;;;;;5085475;28;20210;-70
2023/10/17 06:35:46;;;;;;;;;;;1.90;99.90;;;;;;5085080;28;19927;-70
2023/10/17 06:38:16;;;;;;;;;;;1.90;99.90;;;;;;5085214;28;20218;-70
2023/10/17 06:40:45;;;;;;;;;;;1.90;99.90;;;;;;5085796;28;19916;-69
2023/10/17 06:43:17;;;;;;;;;;;1.90;99.90;;;;;;5085650;28;19928;-70
2023/10/17 06:45:54;;;;;;;;;;;2.00;99.90;;;;;;5084233;28;20234;-69
2023/10/17 06:48:32;;;;;;;;;;;2.00;99.90;;;;;;5084063;28;20242;-69
2023/10/17 06:53:52;;;;;;;;;;;2.10;99.90;;;;;;5082806;28;19962;-69
2023/10/17 06:56:18;;;;;;;;;;;2.20;99.90;;;;;;5082506;28;19927;-70
2023/10/17 06:58:45;;;;;;;;;;;2.20;99.90;;;;;;5085516;28;19951;-69
2023/10/17 07:01:24;;;;;;;;;;;2.30;99.90;;;;;;5085273;28;19920;-70
2023/10/17 07:03:54;;;;;;;;;;;2.30;99.90;;;;;;5082973;28;19952;-70
2023/10/17 07:06:24;;;;;;;;;;;2.30;99.90;;;;;;5084391;28;19921;-69
2023/10/17 07:08:51;;;;;;;;;;;2.30;99.90;;;;;;5088706;28;19939;-69
2023/10/17 07:11:26;;;;;;;;;;;2.40;99.90;;;;;;5085314;28;19956;-70
2023/10/17 07:14:10;;;;;;;;;;;2.40;99.90;;;;;;5084964;28;19921;-69
2023/10/17 07:16:41;;;;;;;;;;;2.50;99.90;;;;;;5081820;28;19942;-68
2023/10/17 07:19:46;;;;;;;;;;;2.50;99.90;;;;;;5080920;28;19958;-70
2023/10/17 07:22:06;;;;;;;;;;;2.50;99.90;;;;;;5084625;28;20137;-70
2023/10/17 07:24:34;;;;;;;;;;;2.50;99.90;;;;;;5088084;28;19924;-70
2023/10/17 07:27:03;;;;;;;;;;;2.60;99.90;;;;;;5087803;28;19953;-70
2023/10/17 07:29:33;;;;;;;;;;;2.60;99.90;;;;;;5088498;28;19956;-70
2023/10/17 07:32:09;;;;;;;;;;;2.70;99.90;;;;;;5084736;28;19927;-69
2023/10/17 07:34:38;;;;;;;;;;;2.80;99.90;;;;;;5084732;28;20117;-71
2023/10/17 07:37:14;;;;;;;;;;;2.90;99.90;;;;;;5084693;28;19920;-70
2023/10/17 07:39:42;;;;;;;;;;;3.00;99.90;;;;;;5084944;28;19924;-70
2023/10/17 07:42:14;;;;;;;;;;;3.10;99.90;;;;;;5093383;28;20233;-70
2023/10/17 07:44:41;;;;;;;;;;;3.20;99.90;;;;;;5082496;28;19920;-71
2023/10/17 07:47:09;;;;;;;;;;;3.30;99.90;;;;;;5087427;28;19928;-70
2023/10/17 07:49:37;;;;;;;;;;;3.50;99.90;;;;;;5084563;28;19920;-70
2023/10/17 07:52:07;;;;;;;;;;;3.50;99.90;;;;;;5082715;28;19983;-70
2023/10/17 07:54:38;;;;;;;;;;;3.60;99.90;;;;;;5090225;28;19944;-70
2023/10/17 07:57:06;;;;;;;;;;;3.70;99.90;;;;;;5090723;28;19923;-72
2023/10/17 07:59:32;;;;;;;;;;;3.70;99.90;;;;;;5084043;28;19921;-70
2023/10/17 08:01:59;;;;;;;;;;;3.80;99.90;;;;;;5086966;28;19929;-72
2023/10/17 08:04:30;;;;;;;;;;;3.90;99.90;;;;;;5083772;28;19921;-70
2023/10/17 08:06:58;;;;;;;;;;;3.90;99.90;;;;;;5086031;28;19963;-70
2023/10/17 08:09:35;;;;;;;;;;;4.00;99.90;;;;;;5084278;28;19984;-70
2023/10/17 08:12:04;;;;;;;;;;;4.10;99.90;;;;;;5080460;28;19951;-71
2023/10/17 08:14:34;;;;;;;;;;;4.20;99.90;;;;;;5086984;28;20243;-70
2023/10/17 08:17:01;;;;;;;;;;;4.20;99.90;;;;;;5086825;28;20352;-71
2023/10/17 08:19:35;;;;;;;;;;;4.20;99.90;;;;;;5091225;28;19962;-70
2023/10/17 08:22:10;;;;;;;;;;;4.30;99.90;;;;;;5083719;28;19920;-70
2023/10/17 08:24:44;;;;;;;;;;;4.40;99.90;;;;;;5083720;28;20232;-70
2023/10/17 08:27:14;;;;;;;;;;;4.50;99.90;;;;;;5084602;28;19920;-70
2023/10/17 08:29:44;;;;;;;;;;;4.50;99.90;;;;;;5081201;28;20218;-70
2023/10/17 08:34:56;;;;;;;;;;;4.60;99.90;;;;;;5075789;28;19993;-70
2023/10/17 08:37:28;;;;;;;;;;;4.70;99.90;;;;;;5082667;28;19920;-70
2023/10/17 08:39:57;;;;;;;;;;;4.80;99.90;;;;;;5083680;28;19999;-69
2023/10/17 08:42:30;;;;;;;;;;;4.80;99.90;;;;;;5083408;28;19927;-69
2023/10/17 08:44:57;;;;;;;;;;;4.90;99.90;;;;;;5085809;28;19920;-69
2023/10/17 08:47:29;;;;;;;;;;;4.90;99.90;;;;;;5084014;28;19921;-69
2023/10/17 08:50:00;;;;;;;;;;;5.00;99.90;;;;;;5083269;28;20087;-69
2023/10/17 08:52:34;;;;;;;;;;;5.10;99.90;;;;;;5079371;28;20103;-69
2023/10/17 08:55:02;;;;;;;;;;;5.10;99.90;;;;;;5085732;28;19920;-69
2023/10/17 08:57:29;;;;;;;;;;;5.20;99.90;;;;;;5083265;28;19947;-69
2023/10/17 09:02:43;;;;;;;;;;;5.40;99.90;;;;;;5081110;28;19924;-69
2023/10/17 09:05:17;;;;;;;;;;;5.40;99.90;;;;;;5087942;28;20007;-69
2023/10/17 09:07:48;;;;;;;;;;;5.50;99.90;;;;;;5086442;28;19942;-69
2023/10/17 09:10:20;;;;;;;;;;;5.60;99.90;;;;;;5083083;28;19979;-69
2023/10/17 09:13:14;;;;;;;;;;;5.70;99.90;;;;;;5087620;28;19920;-69
2023/10/17 09:15:48;;;;;;;;;;;5.80;99.90;;;;;;5083239;28;19920;-70
2023/10/17 09:18:14;;;;;;;;;;;5.90;99.90;;;;;;5082666;28;19923;-69
2023/10/17 09:20:41;;;;;;;;;;;6.00;99.90;;;;;;5082601;28;20232;-69
2023/10/17 09:23:23;;;;;;;;;;;6.10;99.90;;;;;;5082073;28;20083;-69
2023/10/17 09:25:54;;;;;;;;;;;6.10;99.90;;;;;;5085716;28;19924;-69
2023/10/17 09:28:22;;;;;;;;;;;6.20;99.90;;;;;;5076044;28;19929;-69
2023/10/17 09:30:58;;;;;;;;;;;6.30;99.90;;;;;;5069950;28;19921;-69
2023/10/17 09:33:30;;;;;;;;;;;6.40;99.90;;;;;;5066009;28;19921;-69
2023/10/17 09:35:59;;;;;;;;;;;6.50;99.90;;;;;;5072937;28;19952;-69
2023/10/17 09:38:27;;;;;;;;;;;6.60;99.90;;;;;;5065759;28;19928;-69
2023/10/17 09:40:55;;;;;;;;;;;6.70;99.90;;;;;;5066298;28;19973;-69
2023/10/17 09:43:22;;;;;;;;;;;6.70;99.90;;;;;;5069359;28;19995;-69
2023/10/17 09:45:52;;;;;;;;;;;6.80;99.90;;;;;;5075840;28;19952;-69
2023/10/17 09:48:22;;;;;;;;;;;6.90;99.90;;;;;;5077751;28;19966;-69
2023/10/17 09:50:50;;;;;;;;;;;7.00;99.90;;;;;;5069657;28;20395;-69
2023/10/17 09:53:17;;;;;;;;;;;7.10;99.90;;;;;;5076164;28;19927;-69
2023/10/17 09:55:47;;;;;;;;;;;7.10;99.90;;;;;;5075028;28;19924;-69
2023/10/17 09:58:17;;;;;;;;;;;7.20;99.90;;;;;;5071277;28;19931;-69
2023/10/17 10:00:47;;;;;;;;;;;7.20;99.90;;;;;;5075283;28;19955;-69
2023/10/17 10:03:14;;;;;;;;;;;7.30;99.90;;;;;;5077862;28;19920;-69
2023/10/17 10:05:42;;;;;;;;;;;7.30;99.90;;;;;;5066101;28;20262;-69
2023/10/17 10:08:23;;;;;;;;;;;7.30;99.90;;;;;;5072866;28;19921;-69
2023/10/17 10:10:52;;;;;;;;;;;7.40;99.90;;;;;;5077485;28;19952;-69
2023/10/17 10:13:19;;;;;;;;;;;7.40;99.90;;;;;;5070365;28;19927;-68
2023/10/17 10:15:50;;;;;;;;;;;7.60;99.90;;;;;;5076929;28;19983;-69
2023/10/17 10:18:17;;;;;;;;;;;7.60;99.90;;;;;;5077326;28;19963;-68
2023/10/17 10:20:54;;;;;;;;;;;7.60;99.90;;;;;;5070213;28;19928;-69
2023/10/17 10:23:30;;;;;;;;;;;7.60;99.90;;;;;;5072325;28;19920;-69
2023/10/17 10:26:11;;;;;;;;;;;7.60;99.90;;;;;;5068926;28;19983;-69
2023/10/17 10:28:39;;;;;;;;;;;7.70;99.90;;;;;;5071888;28;19959;-70
2023/10/17 10:31:21;;;;;;;;;;;7.70;99.90;;;;;;5076052;28;19988;-69
2023/10/17 10:33:48;;;;;;;;;;;7.80;99.90;;;;;;5071536;28;20113;-69
2023/10/17 10:36:15;;;;;;;;;;;7.90;99.90;;;;;;5071511;28;20256;-69
2023/10/17 10:38:42;;;;;;;;;;;7.90;99.90;;;;;;5072238;28;20238;-69
2023/10/17 10:41:11;;;;;;;;;;;7.90;99.90;;;;;;5076904;28;19920;-69
2023/10/17 10:43:38;;;;;;;;;;;8.00;99.90;;;;;;5068672;28;19921;-69
2023/10/17 10:46:06;;;;;;;;;;;8.00;99.90;;;;;;5076278;28;20125;-69
2023/10/17 10:48:33;;;;;;;;;;;8.00;99.90;;;;;;5068479;28;19963;-69
2023/10/17 10:51:00;;;;;;;;;;;8.00;99.90;;;;;;5075109;28;19921;-69
2023/10/17 10:53:29;;;;;;;;;;;8.00;99.90;;;;;;5080495;28;20118;-69
2023/10/17 10:55:59;;;;;;;;;;;8.10;99.90;;;;;;5075178;28;19921;-69
2023/10/17 10:58:26;;;;;;;;;;;8.10;99.90;;;;;;5075159;28;19921;-69
2023/10/17 11:00:56;;;;;;;;;;;8.10;99.90;;;;;;5070820;28;19921;-69
2023/10/17 11:03:24;;;;;;;;;;;8.10;99.90;;;;;;5072512;28;19928;-69
2023/10/17 11:05:52;;;;;;;;;;;8.20;99.90;;;;;;5081534;28;19963;-69
2023/10/17 11:08:19;;;;;;;;;;;8.20;99.90;;;;;;5070165;28;19927;-69
2023/10/17 11:10:46;;;;;;;;;;;8.30;99.90;;;;;;5076306;28;19920;-69
2023/10/17 11:13:13;;;;;;;;;;;8.30;99.90;;;;;;5076281;28;19999;-69
2023/10/17 11:15:43;;;;;;;;;;;8.40;99.90;;;;;;5072923;28;19920;-68
2023/10/17 11:18:10;;;;;;;;;;;8.40;99.90;;;;;;5071094;28;20272;-69
2023/10/17 11:20:40;;;;;;;;;;;8.50;99.90;;;;;;5075770;28;19992;-69
2023/10/17 11:23:09;;;;;;;;;;;8.50;99.90;;;;;;5076238;28;19967;-69
2023/10/17 11:25:36;;;;;;;;;;;8.60;99.90;;;;;;5069306;28;19956;-69
2023/10/17 11:28:06;;;;;;;;;;;8.60;99.90;;;;;;5075972;28;19972;-70
2023/10/17 11:30:34;;;;;;;;;;;8.60;99.90;;;;;;5081731;28;19942;-69
2023/10/17 11:33:02;;;;;;;;;;;8.70;99.90;;;;;;5084617;28;19920;-69
2023/10/17 11:35:30;;;;;;;;;;;8.70;99.90;;;;;;5084409;28;19924;-68
2023/10/17 11:37:59;;;;;;;;;;;8.80;99.90;;;;;;5084862;28;19962;-69
2023/10/17 11:40:30;;;;;;;;;;;8.80;99.90;;;;;;5067785;28;19928;-69
2023/10/17 11:42:57;;;;;;;;;;;8.80;99.90;;;;;;5070227;28;19920;-69
2023/10/17 11:45:33;;;;;;;;;;;8.80;99.90;;;;;;5069681;28;20260;-69
2023/10/17 11:48:07;;;;;;;;;;;8.90;99.90;;;;;;5071014;28;19974;-69
2023/10/17 11:50:34;;;;;;;;;;;8.90;99.90;;;;;;5080536;28;19921;-69
2023/10/17 11:53:10;;;;;;;;;;;8.90;99.90;;;;;;5072177;28;19928;-69
2023/10/17 11:55:45;;;;;;;;;;;8.90;99.90;;;;;;5070918;28;19920;-69
2023/10/17 11:58:20;;;;;;;;;;;9.00;99.90;;;;;;5073754;28;19920;-68
2023/10/17 12:00:47;;;;;;;;;;;9.00;99.90;;;;;;5073760;28;19928;-69
2023/10/17 12:03:19;;;;;;;;;;;9.00;99.90;;;;;;5070328;28;19920;-69
2023/10/17 12:05:46;;;;;;;;;;;9.10;99.90;;;;;;5066162;28;19925;-69
2023/10/17 12:08:21;;;;;;;;;;;9.10;99.90;;;;;;5070362;28;19963;-69
2023/10/17 12:10:49;;;;;;;;;;;9.10;99.90;;;;;;5068757;28;19920;-68
2023/10/17 12:13:17;;;;;;;;;;;9.20;99.90;;;;;;5068569;28;20122;-69
2023/10/17 12:15:44;;;;;;;;;;;9.20;99.90;;;;;;5068948;28;19921;-69
2023/10/17 12:18:11;;;;;;;;;;;9.20;99.90;;;;;;5075989;28;19948;-69
2023/10/17 12:20:40;;;;;;;;;;;9.20;99.90;;;;;;5070304;28;19987;-69
2023/10/17 12:23:09;;;;;;;;;;;9.20;99.90;;;;;;5072254;28;20268;-68
2023/10/17 12:25:36;;;;;;;;;;;9.20;99.90;;;;;;5066408;28;19921;-69
2023/10/17 12:28:06;;;;;;;;;;;9.20;99.90;;;;;;5073692;28;19995;-69
2023/10/17 12:30:36;;;;;;;;;;;9.20;99.90;;;;;;5068726;28;19989;-69
2023/10/17 12:33:03;;;;;;;;;;;9.10;99.90;;;;;;5071834;28;19928;-69
2023/10/17 12:35:30;;;;;;;;;;;9.20;99.90;;;;;;5066381;28;19924;-69
2023/10/17 12:37:59;;;;;;;;;;;9.20;99.90;;;;;;5071228;28;19963;-69
2023/10/17 12:40:26;;;;;;;;;;;9.20;99.90;;;;;;5071777;28;20007;-69
2023/10/17 12:42:55;;;;;;;;;;;9.20;99.90;;;;;;5070153;28;19959;-69
2023/10/17 12:45:22;;;;;;;;;;;9.10;99.90;;;;;;5066779;28;19935;-69
2023/10/17 12:47:49;;;;;;;;;;;9.20;99.90;;;;;;5066643;28;19920;-69
2023/10/17 12:50:16;;;;;;;;;;;9.20;99.90;;;;;;5070127;28;19954;-69
2023/10/17 12:52:44;;;;;;;;;;;9.20;99.90;;;;;;5086026;28;19962;-69
2023/10/17 12:55:11;;;;;;;;;;;9.30;99.90;;;;;;5082347;28;19924;-69
2023/10/17 12:57:38;;;;;;;;;;;9.30;99.90;;;;;;5082744;28;19927;-69
2023/10/17 13:00:09;;;;;;;;;;;9.30;99.90;;;;;;5082571;28;20011;-69
2023/10/17 13:02:38;;;;;;;;;;;9.40;99.90;;;;;;5082736;28;19974;-69
2023/10/17 13:05:07;;;;;;;;;;;9.40;99.90;;;;;;5077661;28;19997;-69
2023/10/17 13:07:34;;;;;;;;;;;9.40;99.90;;;;;;5081879;28;19935;-69
2023/10/17 13:10:00;;;;;;;;;;;9.50;99.90;;;;;;5082891;28;20003;-69
2023/10/17 13:12:27;;;;;;;;;;;9.50;99.90;;;;;;5083034;28;19921;-70
2023/10/17 13:14:54;;;;;;;;;;;9.50;99.90;;;;;;5082150;28;20117;-70
2023/10/17 13:17:23;;;;;;;;;;;9.50;99.90;;;;;;5081476;28;19920;-69
2023/10/17 13:19:51;;;;;;;;;;;9.50;99.90;;;;;;5082286;28;19928;-74
2023/10/17 13:22:20;;;;;;;;;;;9.50;99.90;;;;;;5081778;28;20210;-68
2023/10/17 13:24:48;;;;;;;;;;;9.60;99.90;;;;;;5081691;28;19920;-69
2023/10/17 13:27:15;;;;;;;;;;;9.60;99.90;;;;;;5082533;28;19920;-69
2023/10/17 13:29:42;;;;;;;;;;;9.70;99.90;;;;;;5081980;28;19946;-72
2023/10/17 13:32:09;;;;;;;;;;;9.70;99.90;;;;;;5082404;28;20225;-68
2023/10/17 13:34:37;;;;;;;;;;;9.70;99.90;;;;;;5082369;28;20206;-69
2023/10/17 13:37:05;;;;;;;;;;;9.70;99.90;;;;;;5079502;28;19948;-68
2023/10/17 13:39:32;;;;;;;;;;;9.70;99.90;;;;;;5082950;28;19959;-68
2023/10/17 13:41:58;;;;;;;;;;;9.70;99.90;;;;;;5082718;28;19956;-68
2023/10/17 13:44:25;;;;;;;;;;;9.70;99.90;;;;;;5082038;28;19992;-69
2023/10/17 13:46:52;;;;;;;;;;;9.70;99.90;;;;;;5082053;28;19920;-68
2023/10/17 13:49:19;;;;;;;;;;;9.70;99.90;;;;;;5082393;28;19920;-68
2023/10/17 13:51:47;;;;;;;;;;;9.70;99.90;;;;;;5082243;28;19955;-68
2023/10/17 13:54:14;;;;;;;;;;;9.70;99.90;;;;;;5081858;28;20122;-69
2023/10/17 13:56:41;;;;;;;;;;;9.80;99.90;;;;;;5082133;28;19932;-69
2023/10/17 13:59:09;;;;;;;;;;;9.80;99.90;;;;;;5087229;28;19920;-68
2023/10/17 14:01:41;;;;;;;;;;;9.90;99.90;;;;;;5082540;28;19921;-70
2023/10/17 14:04:09;;;;;;;;;;;10.00;99.90;;;;;;5081492;28;19920;-69
2023/10/17 14:06:38;;;;;;;;;;;10.30;99.90;;;;;;5081892;28;20256;-69
2023/10/17 14:09:14;;;;;;;;;;;10.50;99.90;;;;;;5079426;28;20122;-69
2023/10/17 14:11:42;;;;;;;;;;;10.80;99.90;;;;;;5082579;28;19991;-70
2023/10/17 14:14:10;;;;;;;;;;;11.10;99.90;;;;;;5082365;28;19920;-70
2023/10/17 14:16:40;;;;;;;;;;;11.30;99.90;;;;;;5082191;28;19974;-69
2023/10/17 14:19:13;;;;;;;;;;;11.40;99.90;;;;;;5079187;28;19986;-69
2023/10/17 14:21:41;;;;;;;;;;;11.60;99.90;;;;;;5082184;28;19920;-69
2023/10/17 14:24:11;;;;;;;;;;;11.80;99.90;;;;;;5082188;28;19947;-69
2023/10/17 14:26:39;;;;;;;;;;;11.90;99.90;;;;;;5082033;28;19920;-69
2023/10/17 14:29:05;;;;;;;;;;;12.00;99.90;;;;;;5085500;28;19920;-70
2023/10/17 14:31:32;;;;;;;;;;;12.10;99.90;;;;;;5084931;28;19920;-71
2023/10/17 14:33:59;;;;;;;;;;;12.10;99.90;;;;;;5084846;28;19928;-69
2023/10/17 14:36:26;;;;;;;;;;;12.30;99.90;;;;;;5085278;28;19966;-69
2023/10/17 14:38:53;;;;;;;;;;;12.40;99.90;;;;;;5085529;28;19948;-69
2023/10/17 14:41:22;;;;;;;;;;;12.60;99.90;;;;;;5085260;28;19928;-72
2023/10/17 14:43:50;;;;;;;;;;;12.80;99.90;;;;;;5085308;28;19920;-72
2023/10/17 14:46:17;;;;;;;;;;;12.90;99.90;;;;;;5084672;28;19921;-70
2023/10/17 14:48:44;;;;;;;;;;;12.90;99.90;;;;;;5084192;28;19971;-70
2023/10/17 14:51:12;;;;;;;;;;;12.80;99.90;;;;;;5084965;28;19939;-70
2023/10/17 14:53:42;;;;;;;;;;;12.70;99.90;;;;;;5085997;28;19920;-69
2023/10/17 14:56:12;;;;;;;;;;;12.70;99.90;;;;;;5084705;28;19927;-70
2023/10/17 14:58:41;;;;;;;;;;;12.50;99.90;;;;;;5081295;28;20083;-69
2023/10/17 15:01:08;;;;;;;;;;;12.30;99.90;;;;;;5081326;28;19933;-70
2023/10/17 15:03:35;;;;;;;;;;;12.10;99.90;;;;;;5085409;28;20117;-70
2023/10/17 15:06:03;;;;;;;;;;;11.90;99.90;;;;;;5088416;28;19948;-70
2023/10/17 15:08:31;;;;;;;;;;;11.70;99.90;;;;;;5080780;28;19936;-70
2023/10/17 15:11:04;;;;;;;;;;;11.60;99.90;;;;;;5089749;28;19928;-70
2023/10/17 15:13:32;;;;;;;;;;;11.40;99.90;;;;;;5081911;28;19920;-70
2023/10/17 15:16:00;;;;;;;;;;;11.30;99.90;;;;;;5089488;28;19921;-70
2023/10/17 15:18:27;;;;;;;;;;;11.10;99.90;;;;;;5095180;28;19920;-70
2023/10/17 15:21:03;;;;;;;;;;;11.00;99.90;;;;;;5088667;28;19951;-70
2023/10/17 15:23:30;;;;;;;;;;;10.80;99.90;;;;;;5088866;28;19947;-70
2023/10/17 15:25:56;;;;;;;;;;;10.70;99.90;;;;;;5083428;28;19921;-70
2023/10/17 15:28:23;;;;;;;;;;;10.70;99.90;;;;;;5084389;28;19955;-71
2023/10/17 15:30:50;;;;;;;;;;;10.60;99.90;;;;;;5084681;28;19962;-70
2023/10/17 15:33:18;;;;;;;;;;;10.50;99.90;;;;;;5090464;28;19927;-70
2023/10/17 15:35:46;;;;;;;;;;;10.40;99.90;;;;;;5084796;28;19921;-70
2023/10/17 15:38:12;;;;;;;;;;;10.30;99.90;;;;;;5086640;28;19990;-70
2023/10/17 15:40:39;;;;;;;;;;;10.30;99.90;;;;;;5083383;28;19952;-70
2023/10/17 15:43:08;;;;;;;;;;;10.20;99.90;;;;;;5084332;28;19959;-70
2023/10/17 15:45:36;;;;;;;;;;;10.10;99.90;;;;;;5083794;28;19993;-70
2023/10/17 15:48:02;;;;;;;;;;;10.10;99.90;;;;;;5083477;28;19936;-70
2023/10/17 15:50:30;;;;;;;;;;;10.00;99.90;;;;;;5089400;28;19920;-70
2023/10/17 15:52:57;;;;;;;;;;;9.90;99.90;;;;;;5083858;28;19983;-71
2023/10/17 15:55:24;;;;;;;;;;;9.90;99.90;;;;;;5088641;28;19981;-70
2023/10/17 15:57:50;;;;;;;;;;;9.80;99.90;;;;;;5087557;28;20249;-70
2023/10/17 16:00:19;;;;;;;;;;;9.70;99.90;;;;;;5082438;28;19920;-70
2023/10/17 16:02:46;;;;;;;;;;;9.70;99.90;;;;;;5083961;28;20418;-70
2023/10/17 16:05:13;;;;;;;;;;;9.70;99.90;;;;;;5083152;28;20001;-70
2023/10/17 16:07:42;;;;;;;;;;;9.60;99.90;;;;;;5087866;28;19928;-70
2023/10/17 16:10:09;;;;;;;;;;;9.50;99.90;;;;;;5082163;28;19988;-70